Time;durP1;ratioP1;P1;durP2;ratioP2;P2;SDS_P1;SDS_P2;PMS_P1;PMS_P2;Temp;Humidity;BMP_temperature;BMP_pressure;BME280_temperature;BME280_humidity;BME280_pressure;Samples;Min_cycle;Max_cycle;Signal;HPM_P1;HPM_P2
2023/01/12 00:02:14;;;;;;;17.08;6.63;;;4.50;99.90;;;;;;5094806;28;20034;-56
2023/01/12 00:04:39;;;;;;;19.20;5.85;;;4.50;99.90;;;;;;5105083;28;20024;-53
2023/01/12 00:07:07;;;;;;;13.40;6.45;;;4.60;99.90;;;;;;5093963;28;20033;-54
2023/01/12 00:09:33;;;;;;;15.57;6.05;;;4.60;99.90;;;;;;5110922;28;20027;-56
2023/01/12 00:11:58;;;;;;;13.13;5.10;;;4.50;99.90;;;;;;5093167;28;20042;-56
2023/01/12 00:14:24;;;;;;;17.88;6.10;;;4.60;99.90;;;;;;5110776;28;20513;-52
2023/01/12 00:16:49;;;;;;;12.68;5.97;;;4.60;99.90;;;;;;5091888;28;20911;-51
2023/01/12 00:19:20;;;;;;;14.25;5.85;;;4.60;99.90;;;;;;5111106;28;20058;-53
2023/01/12 00:21:51;;;;;;;16.25;6.43;;;4.60;99.90;;;;;;5090697;28;20024;-55
2023/01/12 00:24:18;;;;;;;9.88;5.32;;;4.70;99.90;;;;;;5110936;28;20547;-55
2023/01/12 00:26:45;;;;;;;17.30;6.43;;;4.70;99.90;;;;;;5090740;28;20028;-58
2023/01/12 00:29:10;;;;;;;18.08;6.47;;;4.70;99.90;;;;;;5110571;27;20519;-55
2023/01/12 00:31:36;;;;;;;10.13;5.82;;;4.70;99.90;;;;;;5089500;28;20042;-55
2023/01/12 00:34:01;;;;;;;12.07;6.40;;;4.80;99.90;;;;;;5110535;28;20028;-52
2023/01/12 00:36:27;;;;;;;20.13;6.28;;;4.80;99.90;;;;;;5094900;28;20076;-56
2023/01/12 00:38:52;;;;;;;14.43;5.03;;;4.70;99.90;;;;;;5108340;28;20054;-56
2023/01/12 00:46:47;;;;;;;12.00;4.93;;;4.70;99.90;;;;;;5070004;28;20039;-59
2023/01/12 00:49:13;;;;;;;10.30;4.80;;;4.70;99.90;;;;;;5107759;28;20040;-58
2023/01/12 00:51:38;;;;;;;16.88;5.88;;;4.70;99.90;;;;;;5090348;28;20040;-59
2023/01/12 00:54:07;;;;;;;13.90;5.68;;;4.80;99.90;;;;;;5088662;28;20266;-60
2023/01/12 00:56:33;;;;;;;11.20;5.63;;;4.80;99.90;;;;;;5109716;28;20046;-59
2023/01/12 00:58:58;;;;;;;11.13;5.05;;;4.70;99.90;;;;;;5088708;28;20032;-57
2023/01/12 01:01:24;;;;;;;13.20;5.18;;;4.80;99.90;;;;;;5109150;28;20083;-59
2023/01/12 01:03:49;;;;;;;11.90;5.10;;;4.80;99.90;;;;;;5085195;28;20587;-58
2023/01/12 01:06:15;;;;;;;10.68;4.30;;;4.80;99.90;;;;;;5108866;28;20032;-59
2023/01/12 01:08:40;;;;;;;11.13;4.50;;;4.80;99.90;;;;;;5086365;28;20054;-59
2023/01/12 01:11:08;;;;;;;12.25;4.35;;;4.80;99.90;;;;;;5109102;28;20028;-59
2023/01/12 01:13:42;;;;;;;10.77;4.35;;;4.80;99.90;;;;;;5087684;28;20646;-59
2023/01/12 01:16:09;;;;;;;13.75;4.47;;;4.80;99.90;;;;;;5069153;28;20107;-59
2023/01/12 01:18:35;;;;;;;9.15;4.28;;;4.80;99.90;;;;;;5092186;28;20446;-59
2023/01/12 01:21:01;;;;;;;17.98;5.13;;;4.80;99.90;;;;;;5108911;28;20110;-58
2023/01/12 01:23:28;;;;;;;13.60;4.32;;;4.80;99.90;;;;;;5087615;28;20499;-59
2023/01/12 01:25:54;;;;;;;7.47;3.58;;;4.80;99.90;;;;;;5109374;28;20030;-60
2023/01/12 01:28:21;;;;;;;10.88;4.50;;;4.80;99.90;;;;;;5109394;28;20043;-57
2023/01/12 01:30:47;;;;;;;10.25;4.43;;;4.80;99.90;;;;;;5109565;28;20035;-59
2023/01/12 01:33:13;;;;;;;10.98;4.13;;;4.80;99.90;;;;;;5109455;28;20111;-59
2023/01/12 01:35:38;;;;;;;13.80;4.25;;;4.80;99.90;;;;;;5109514;28;20551;-59
2023/01/12 01:38:04;;;;;;;9.70;3.58;;;4.90;99.90;;;;;;5109441;28;20103;-58
2023/01/12 01:40:31;;;;;;;10.27;3.15;;;4.80;99.90;;;;;;5109514;28;20031;-58
2023/01/12 01:42:57;;;;;;;10.50;3.47;;;4.80;99.90;;;;;;5109528;28;20035;-60
2023/01/12 01:45:23;;;;;;;8.02;2.90;;;4.80;99.90;;;;;;5109284;28;20024;-59
2023/01/12 01:47:57;;;;;;;13.07;3.60;;;4.80;99.90;;;;;;5109267;28;20023;-59
2023/01/12 01:50:28;;;;;;;10.73;3.30;;;4.70;99.90;;;;;;5108078;28;20107;-58
2023/01/12 01:53:07;;;;;;;9.82;4.22;;;4.80;99.90;;;;;;5109348;28;20020;-58
2023/01/12 01:55:58;;;;;;;17.05;2.83;;;4.80;99.90;;;;;;5108252;28;20107;-59
2023/01/12 01:58:35;;;;;;;14.98;3.30;;;4.80;99.90;;;;;;5109216;28;20012;-60
2023/01/12 02:01:01;;;;;;;11.05;3.60;;;4.90;99.90;;;;;;5109387;28;20428;-59
2023/01/12 02:03:27;;;;;;;12.98;2.50;;;4.90;99.90;;;;;;5109025;28;20027;-59
2023/01/12 02:05:54;;;;;;;8.25;3.10;;;4.90;99.90;;;;;;5109309;28;20059;-59
2023/01/12 02:08:29;;;;;;;14.45;3.53;;;5.00;99.90;;;;;;5109384;28;20058;-58
2023/01/12 02:10:56;;;;;;;9.60;3.10;;;5.00;99.90;;;;;;5109272;28;20031;-59
2023/01/12 02:16:22;;;;;;;6.70;2.60;;;5.00;99.90;;;;;;5109652;28;20072;-58
2023/01/12 02:18:57;;;;;;;16.45;3.10;;;5.10;99.90;;;;;;5110866;28;20023;-59
2023/01/12 02:21:57;;;;;;;9.40;2.22;;;5.20;99.90;;;;;;5113010;28;20384;-58
2023/01/12 02:24:32;;;;;;;12.95;2.83;;;5.30;99.90;;;;;;5113043;28;20051;-59
2023/01/12 02:27:25;;;;;;;7.83;2.30;;;5.40;99.90;;;;;;5113233;28;20491;-57
2023/01/12 02:30:21;;;;;;;7.82;2.17;;;5.50;99.90;;;;;;5112692;28;20038;-58
2023/01/12 02:32:54;;;;;;;9.13;3.03;;;5.50;99.90;;;;;;5112689;28;20020;-58
2023/01/12 02:35:27;;;;;;;9.02;2.33;;;5.60;99.90;;;;;;5112926;28;20023;-58
2023/01/12 02:38:17;;;;;;;6.40;1.88;;;5.70;99.90;;;;;;5112852;28;20115;-59
2023/01/12 02:41:06;;;;;;;17.80;3.55;;;5.70;99.90;;;;;;5112790;28;20027;-58
2023/01/12 02:43:35;;;;;;;8.20;2.60;;;5.80;99.90;;;;;;5112694;28;20027;-57
2023/01/12 02:46:26;;;;;;;5.10;2.35;;;5.80;99.90;;;;;;5112731;28;20104;-58
2023/01/12 02:49:02;;;;;;;9.23;1.77;;;5.90;99.90;;;;;;5112741;28;20058;-58
2023/01/12 02:51:40;;;;;;;;;;;6.00;99.90;;;;;;5112970;28;20028;-57
2023/01/12 02:54:14;;;;;;;12.50;2.42;;;6.00;99.90;;;;;;5112462;28;19908;-56
2023/01/12 02:56:46;;;;;;;8.70;1.80;;;6.10;99.90;;;;;;5112585;28;20495;-57
2023/01/12 02:59:25;;;;;;;8.77;2.00;;;6.10;99.90;;;;;;5112582;28;20035;-58
2023/01/12 03:01:55;;;;;;;11.30;2.00;;;6.20;99.90;;;;;;5112455;28;20106;-58
2023/01/12 03:04:22;;;;;;;9.27;2.38;;;6.20;99.90;;;;;;5112459;28;20015;-58
2023/01/12 03:06:56;;;;;;;10.43;2.83;;;6.20;99.90;;;;;;5112199;28;20487;-58
2023/01/12 03:09:27;;;;;;;7.05;2.20;;;6.20;99.90;;;;;;5112150;28;20031;-58
2023/01/12 03:12:00;;;;;;;6.47;2.08;;;6.30;99.90;;;;;;5112350;28;20020;-56
2023/01/12 03:14:27;;;;;;;10.55;1.85;;;6.30;99.90;;;;;;5112008;28;20020;-58
2023/01/12 03:16:55;;;;;;;12.60;2.10;;;6.30;99.90;;;;;;5112202;28;20027;-56
2023/01/12 03:19:28;;;;;;;5.95;1.70;;;6.30;99.90;;;;;;5112114;28;20119;-57
2023/01/12 03:22:04;;;;;;;8.57;2.28;;;6.30;99.90;;;;;;5112018;28;20115;-58
2023/01/12 03:24:39;;;;;;;7.82;2.20;;;6.30;99.90;;;;;;5112053;27;20507;-55
2023/01/12 03:27:12;;;;;;;9.20;1.80;;;6.30;99.90;;;;;;5111722;28;20030;-58
2023/01/12 03:30:10;;;;;;;14.23;2.95;;;6.30;99.90;;;;;;5111140;28;20059;-58
2023/01/12 03:32:35;;;;;;;14.25;2.33;;;6.40;99.90;;;;;;5076021;28;20499;-59
2023/01/12 03:35:04;;;;;;;5.57;2.13;;;6.30;99.90;;;;;;5111877;28;20039;-57
2023/01/12 03:37:49;;;;;;;8.32;1.70;;;6.40;99.90;;;;;;5091920;28;20028;-59
2023/01/12 03:40:20;;;;;;;10.23;2.10;;;6.40;99.90;;;;;;5111771;28;20524;-58
2023/01/12 03:43:04;;;;;;;9.75;2.05;;;6.40;99.90;;;;;;5078497;28;20065;-57
2023/01/12 03:45:44;;;;;;;5.88;1.92;;;6.40;99.90;;;;;;5111540;28;20019;-58
2023/01/12 03:48:23;;;;;;;6.10;1.70;;;6.40;99.90;;;;;;5085655;28;20023;-59
2023/01/12 03:50:56;;;;;;;6.22;2.00;;;6.50;99.90;;;;;;5070767;28;20040;-58
2023/01/12 03:53:23;;;;;;;7.85;1.83;;;6.50;99.90;;;;;;5088989;28;20066;-57
2023/01/12 03:55:53;;;;;;;8.63;1.65;;;6.50;99.90;;;;;;5091402;28;20062;-57
2023/01/12 03:58:19;;;;;;;13.48;2.30;;;6.50;99.90;;;;;;5088195;28;20036;-58
2023/01/12 04:00:45;;;;;;;10.75;1.95;;;6.50;99.90;;;;;;5091217;28;20093;-59
2023/01/12 04:03:13;;;;;;;9.00;2.15;;;6.50;99.90;;;;;;5108540;28;20035;-55
2023/01/12 04:05:40;;;;;;;3.03;1.52;;;6.50;99.90;;;;;;5091106;28;20043;-58
2023/01/12 04:08:06;;;;;;;5.82;1.48;;;6.50;99.90;;;;;;5108583;28;20491;-58
2023/01/12 04:10:32;;;;;;;7.55;1.75;;;6.60;99.90;;;;;;5091283;28;20042;-56
2023/01/12 04:12:57;;;;;;;8.48;2.53;;;6.60;99.90;;;;;;5108449;28;20026;-56
2023/01/12 04:15:23;;;;;;;4.03;2.13;;;6.60;99.90;;;;;;5110939;28;20047;-57
2023/01/12 04:17:48;;;;;;;8.32;1.67;;;6.60;99.90;;;;;;5094276;28;20027;-58
2023/01/12 04:20:14;;;;;;;6.15;2.15;;;6.60;99.90;;;;;;5111060;28;20106;-54
2023/01/12 04:22:42;;;;;;;5.43;1.98;;;6.60;99.90;;;;;;5093173;28;20390;-57
2023/01/12 04:25:17;;;;;;;6.53;1.50;;;6.60;99.90;;;;;;5110701;28;20031;-59
2023/01/12 04:27:46;;;;;;;12.98;2.88;;;6.60;99.90;;;;;;5075428;28;20055;-54
2023/01/12 04:30:12;;;;;;;7.97;2.13;;;6.60;99.90;;;;;;5090385;28;20032;-57
2023/01/12 04:32:38;;;;;;;7.30;2.05;;;6.70;99.90;;;;;;5107603;28;20102;-57
2023/01/12 04:35:04;;;;;;;8.98;1.40;;;6.70;99.90;;;;;;5104786;28;20314;-58
2023/01/12 04:37:32;;;;;;;9.13;1.55;;;6.70;99.90;;;;;;5077934;28;20059;-55
2023/01/12 04:39:58;;;;;;;6.40;1.60;;;6.70;99.90;;;;;;5090184;28;20103;-58
2023/01/12 04:45:08;;;;;;;6.72;1.80;;;6.70;99.90;;;;;;5110618;28;20051;-57
2023/01/12 04:47:34;;;;;;;5.50;1.42;;;6.80;99.90;;;;;;5096009;28;20062;-58
2023/01/12 04:49:59;;;;;;;5.13;1.23;;;6.80;99.90;;;;;;5089254;28;20044;-55
2023/01/12 04:52:25;;;;;;;4.93;1.48;;;6.80;99.90;;;;;;5094099;28;20039;-57
2023/01/12 04:54:50;;;;;;;7.25;2.70;;;6.80;99.90;;;;;;5095890;28;20040;-56
2023/01/12 04:57:16;;;;;;;11.70;1.70;;;6.80;99.90;;;;;;5092846;28;20050;-57
2023/01/12 04:59:41;;;;;;;5.70;2.45;;;6.80;99.90;;;;;;5109796;28;20076;-55
2023/01/12 05:02:06;;;;;;;3.83;1.40;;;6.80;99.90;;;;;;5092166;28;20027;-57
2023/01/12 05:04:32;;;;;;;6.55;1.70;;;6.80;99.90;;;;;;5110075;28;20051;-55
2023/01/12 05:06:57;;;;;;;9.60;1.90;;;6.80;99.90;;;;;;5090885;28;20031;-57
2023/01/12 05:12:07;;;;;;;4.72;1.38;;;6.90;99.90;;;;;;5075156;28;20577;-52
2023/01/12 05:14:32;;;;;;;7.68;1.10;;;6.90;99.90;;;;;;5109840;28;20024;-56
2023/01/12 05:16:58;;;;;;;7.88;1.50;;;6.90;99.90;;;;;;5090855;28;20078;-57
2023/01/12 05:19:24;;;;;;;4.88;1.52;;;6.90;99.90;;;;;;5109525;28;20026;-57
2023/01/12 05:21:49;;;;;;;5.25;1.30;;;6.90;99.90;;;;;;5089515;28;20051;-56
2023/01/12 05:24:15;;;;;;;10.20;2.58;;;6.90;99.90;;;;;;5109777;28;20026;-58
2023/01/12 05:26:40;;;;;;;9.57;1.52;;;7.00;99.90;;;;;;5088204;28;20516;-57
2023/01/12 05:29:07;;;;;;;6.07;1.10;;;7.00;99.90;;;;;;5109373;28;20047;-55
2023/01/12 05:31:34;;;;;;;7.53;2.08;;;7.00;99.90;;;;;;5089121;28;20024;-56
2023/01/12 05:33:59;;;;;;;6.78;1.40;;;7.10;99.90;;;;;;5100833;28;20102;-58
2023/01/12 05:36:24;;;;;;;6.57;1.55;;;7.00;99.90;;;;;;5090429;28;20119;-56
2023/01/12 05:38:50;;;;;;;5.88;2.25;;;7.10;99.90;;;;;;5089159;28;20385;-57
2023/01/12 05:41:15;;;;;;;10.40;2.85;;;7.10;99.90;;;;;;5108690;28;20035;-58
2023/01/12 05:43:50;;;;;;;7.15;1.80;;;7.10;99.90;;;;;;5109173;28;20488;-55
2023/01/12 05:46:19;;;;;;;8.30;2.13;;;7.10;99.90;;;;;;5067340;28;20031;-54
2023/01/12 05:48:44;;;;;;;6.13;1.63;;;7.10;99.90;;;;;;5068620;28;20066;-51
2023/01/12 05:51:10;;;;;;;4.35;1.48;;;7.10;99.90;;;;;;5107847;28;20487;-50
2023/01/12 05:53:36;;;;;;;5.47;1.40;;;7.10;99.90;;;;;;5087018;28;20035;-52
2023/01/12 05:56:07;;;;;;;7.78;1.92;;;7.10;99.90;;;;;;5108733;28;20405;-56
2023/01/12 05:58:33;;;;;;;5.60;1.65;;;7.20;99.90;;;;;;5087104;28;20034;-56
2023/01/12 06:00:59;;;;;;;6.28;1.75;;;7.20;99.90;;;;;;5108532;28;20110;-55
2023/01/12 06:03:24;;;;;;;6.82;1.35;;;7.20;99.90;;;;;;5087267;28;20024;-54
2023/01/12 06:05:54;;;;;;;9.20;1.52;;;7.20;99.90;;;;;;5108570;28;20038;-54
2023/01/12 06:08:20;;;;;;;6.65;1.40;;;7.20;99.90;;;;;;5087356;28;20024;-54
2023/01/12 06:10:46;;;;;;;5.32;1.17;;;7.20;99.90;;;;;;5108186;28;20035;-52
2023/01/12 06:16:05;;;;;;;9.93;1.60;;;7.30;99.90;;;;;;5068694;28;20082;-55
2023/01/12 06:18:35;;;;;;;4.38;1.48;;;7.40;99.90;;;;;;5081809;28;20055;-54
2023/01/12 06:21:01;;;;;;;8.77;2.50;;;7.40;99.90;;;;;;5091759;28;20038;-55
2023/01/12 06:23:27;;;;;;;7.50;1.50;;;7.40;99.90;;;;;;5106966;28;20016;-56
2023/01/12 06:25:53;;;;;;;10.57;1.65;;;7.40;99.90;;;;;;5108854;28;20035;-52
2023/01/12 06:28:18;;;;;;;3.78;1.58;;;7.40;99.90;;;;;;5093058;28;20096;-50
2023/01/12 06:30:43;;;;;;;11.00;1.75;;;7.50;99.90;;;;;;5085322;28;20711;-54
2023/01/12 06:33:09;;;;;;;8.77;2.28;;;7.50;99.90;;;;;;5091837;28;20015;-56
2023/01/12 06:35:34;;;;;;;4.40;1.88;;;7.50;99.90;;;;;;5087882;28;20483;-55
2023/01/12 06:38:00;;;;;;;3.92;0.95;;;7.50;99.90;;;;;;5094056;28;20032;-55
2023/01/12 06:40:26;;;;;;;6.55;1.52;;;7.50;99.90;;;;;;5087683;28;20024;-48
2023/01/12 06:42:51;;;;;;;6.13;1.92;;;7.50;99.90;;;;;;5104741;28;20081;-47
2023/01/12 06:45:17;;;;;;;6.68;1.20;;;7.60;99.90;;;;;;5107776;28;20148;-49
2023/01/12 06:47:48;;;;;;;5.07;1.85;;;7.60;99.90;;;;;;5091693;28;20028;-51
2023/01/12 06:50:14;;;;;;;5.95;1.42;;;7.60;99.90;;;;;;5107608;28;20031;-49
2023/01/12 06:52:40;;;;;;;8.20;1.92;;;7.60;99.90;;;;;;5094264;28;20031;-51
2023/01/12 06:55:07;;;;;;;11.70;1.70;;;7.60;99.90;;;;;;5107209;28;20027;-51
2023/01/12 06:57:32;;;;;;;6.85;1.73;;;7.60;99.90;;;;;;5087168;28;20126;-52
2023/01/12 06:59:58;;;;;;;5.18;1.67;;;7.60;99.90;;;;;;5086836;28;20158;-52
2023/01/12 07:02:23;;;;;;;4.93;1.50;;;7.60;99.90;;;;;;5089527;28;20019;-50
2023/01/12 07:04:48;;;;;;;4.75;1.83;;;7.60;99.90;;;;;;5095311;28;20453;-51
2023/01/12 07:07:14;;;;;;;8.63;2.10;;;7.70;99.90;;;;;;5088666;28;20039;-49
2023/01/12 07:09:39;;;;;;;10.13;1.75;;;7.70;99.90;;;;;;5098150;28;20042;-53
2023/01/12 07:12:05;;;;;;;10.50;1.77;;;7.70;99.90;;;;;;5090525;28;20067;-51
2023/01/12 07:14:31;;;;;;;3.50;1.33;;;7.70;99.90;;;;;;5108394;28;20031;-49
2023/01/12 07:16:56;;;;;;;10.20;2.03;;;7.70;99.90;;;;;;5091370;28;20166;-53
2023/01/12 07:19:22;;;;;;;5.25;1.50;;;7.70;99.90;;;;;;5109438;28;20023;-53
2023/01/12 07:21:49;;;;;;;7.10;1.65;;;7.70;99.90;;;;;;5092127;28;20028;-51
2023/01/12 07:24:15;;;;;;;6.82;1.30;;;7.70;99.90;;;;;;5109214;28;20031;-54
2023/01/12 07:26:40;;;;;;;8.07;1.92;;;7.80;99.90;;;;;;5111763;28;20400;-54
2023/01/12 07:29:06;;;;;;;5.43;1.52;;;7.80;99.90;;;;;;5096027;28;20214;-55
2023/01/12 07:31:31;;;;;;;9.00;1.92;;;7.80;99.90;;;;;;5111613;28;20511;-57
2023/01/12 07:33:56;;;;;;;4.68;1.38;;;7.80;99.90;;;;;;5091413;28;20074;-55
2023/01/12 07:36:22;;;;;;;11.82;1.58;;;7.90;99.90;;;;;;5111459;28;20030;-57
2023/01/12 07:38:48;;;;;;;6.00;1.75;;;7.90;99.90;;;;;;5093447;28;20506;-56
2023/01/12 07:43:58;;;;;;;5.03;1.30;;;7.90;99.90;;;;;;5079085;28;20107;-56
2023/01/12 07:46:24;;;;;;;8.52;1.40;;;8.00;99.90;;;;;;5111472;28;20065;-58
2023/01/12 07:48:49;;;;;;;6.90;1.63;;;8.00;99.90;;;;;;5093255;28;20027;-57
2023/01/12 07:51:15;;;;;;;7.13;1.50;;;8.00;99.90;;;;;;5111494;28;20023;-58
2023/01/12 07:53:40;;;;;;;7.60;1.98;;;8.00;99.90;;;;;;5092024;28;20032;-58
2023/01/12 07:56:08;;;;;;;4.07;1.45;;;8.10;99.90;;;;;;5109843;28;20046;-58
2023/01/12 07:58:34;;;;;;;8.90;2.05;;;8.10;99.90;;;;;;5090644;28;20056;-55
2023/01/12 08:01:00;;;;;;;5.45;1.13;;;8.20;99.90;;;;;;5111476;28;20518;-59
2023/01/12 08:03:26;;;;;;;2.53;1.08;;;8.30;99.90;;;;;;5089597;28;20036;-59
2023/01/12 08:05:53;;;;;;;3.72;1.48;;;8.30;99.90;;;;;;5111129;28;20031;-57
2023/01/12 08:08:19;;;;;;;6.32;1.48;;;8.40;99.90;;;;;;5090916;28;20085;-58
2023/01/12 08:10:47;;;;;;;10.88;2.00;;;8.40;99.90;;;;;;5108689;28;20638;-58
2023/01/12 08:13:12;;;;;;;7.65;1.30;;;8.50;99.90;;;;;;5090890;28;20049;-59
2023/01/12 08:15:43;;;;;;;4.78;1.35;;;8.50;99.90;;;;;;5088797;28;20043;-58
2023/01/12 08:18:33;;;;;;;7.97;1.67;;;8.60;99.90;;;;;;5070218;28;20048;-58
2023/01/12 08:21:01;;;;;;;5.80;1.20;;;8.60;99.90;;;;;;5069851;28;20120;-58
2023/01/12 08:23:33;;;;;;;11.48;1.60;;;8.60;99.90;;;;;;5108047;28;20035;-59
2023/01/12 08:26:03;;;;;;;8.48;1.30;;;8.70;99.90;;;;;;5110879;28;20386;-57
2023/01/12 08:28:39;;;;;;;4.60;1.42;;;8.70;99.90;;;;;;5088839;28;20044;-58
2023/01/12 08:31:09;;;;;;;8.05;1.73;;;8.70;99.90;;;;;;5110626;28;20058;-57
2023/01/12 08:33:36;;;;;;;4.88;1.38;;;8.70;99.90;;;;;;5092320;28;20055;-58
2023/01/12 08:36:03;;;;;;;4.20;1.48;;;8.70;99.90;;;;;;5090286;28;20019;-58
2023/01/12 08:38:29;;;;;;;8.20;1.55;;;8.70;99.90;;;;;;5107804;28;20119;-59
2023/01/12 08:46:23;;;;;;;5.93;1.42;;;8.80;99.90;;;;;;5110512;28;20030;-57
2023/01/12 08:48:49;;;;;;;7.30;1.25;;;8.80;99.90;;;;;;5090994;28;20114;-58
2023/01/12 08:51:14;;;;;;;3.38;1.48;;;8.80;99.90;;;;;;5110160;28;20036;-58
2023/01/12 08:53:40;;;;;;;5.20;1.15;;;8.80;99.90;;;;;;5090794;28;20036;-55
2023/01/12 08:56:06;;;;;;;4.80;1.38;;;8.90;99.90;;;;;;5108980;28;20027;-56
2023/01/12 08:58:31;;;;;;;4.72;1.13;;;8.90;99.90;;;;;;5089477;28;20020;-57
2023/01/12 09:00:57;;;;;;;5.60;1.30;;;8.90;99.90;;;;;;5109980;28;20059;-58
2023/01/12 09:03:22;;;;;;;4.13;1.80;;;8.90;99.90;;;;;;5087983;28;20267;-58
2023/01/12 09:05:48;;;;;;;5.80;1.60;;;8.90;99.90;;;;;;5089807;28;20023;-56
2023/01/12 09:08:14;;;;;;;8.50;1.75;;;8.90;99.90;;;;;;5109062;28;20024;-57
2023/01/12 09:10:39;;;;;;;3.88;1.13;;;9.00;99.90;;;;;;5088052;28;20101;-57
2023/01/12 09:13:05;;;;;;;4.70;1.50;;;9.00;99.90;;;;;;5109048;28;20028;-58
2023/01/12 09:15:30;;;;;;;6.55;1.88;;;9.00;99.90;;;;;;5088433;28;20020;-58
2023/01/12 09:17:56;;;;;;;5.65;1.60;;;9.00;99.90;;;;;;5109185;28;20032;-58
2023/01/12 09:20:21;;;;;;;4.95;1.52;;;9.10;99.90;;;;;;5088738;28;20471;-55
2023/01/12 09:22:47;;;;;;;5.63;1.60;;;9.10;99.90;;;;;;5109298;28;20035;-57
2023/01/12 09:25:13;;;;;;;4.32;1.23;;;9.20;99.90;;;;;;5098108;28;20024;-56
2023/01/12 09:27:39;;;;;;;6.57;1.25;;;9.20;99.90;;;;;;5103331;28;20044;-62
2023/01/12 09:30:05;;;;;;;4.68;1.25;;;9.20;99.90;;;;;;5101674;28;20097;-58
2023/01/12 09:32:31;;;;;;;5.93;1.80;;;9.20;99.90;;;;;;5089326;28;20101;-56
2023/01/12 09:34:58;;;;;;;5.07;1.27;;;9.20;99.90;;;;;;5091352;28;20472;-59
2023/01/12 09:37:24;;;;;;;5.05;1.45;;;9.20;99.90;;;;;;5108799;28;20034;-57
2023/01/12 09:39:50;;;;;;;9.63;1.60;;;9.20;99.90;;;;;;5087648;28;20446;-56
2023/01/12 09:48:07;;;;;;;8.35;2.95;;;9.20;99.90;;;;;;5068932;28;20032;-57
2023/01/12 09:50:45;;;;;;;13.35;3.65;;;9.30;99.90;;;;;;5087053;28;20040;-54
2023/01/12 09:53:22;;;;;;;15.60;4.47;;;9.30;99.90;;;;;;5068616;28;20040;-58
2023/01/12 09:56:06;;;;;;;7.55;2.92;;;9.30;99.90;;;;;;5068745;28;20020;-55
2023/01/12 09:59:07;;;;;;;7.65;1.83;;;9.40;99.90;;;;;;5069843;28;20036;-55
2023/01/12 10:01:34;;;;;;;9.63;2.35;;;9.40;99.90;;;;;;5053243;28;20047;-56
2023/01/12 10:04:01;;;;;;;5.50;1.63;;;9.40;99.90;;;;;;5092876;28;20020;-58
2023/01/12 10:06:27;;;;;;;7.13;2.20;;;9.50;99.90;;;;;;5107869;28;20024;-56
2023/01/12 10:09:03;;;;;;;7.85;1.80;;;9.50;99.90;;;;;;5091680;28;20020;-58
2023/01/12 10:11:41;;;;;;;7.75;1.90;;;9.60;99.90;;;;;;5109121;28;20028;-53
2023/01/12 10:14:28;;;;;;;3.80;2.15;;;9.70;99.90;;;;;;5078033;28;20039;-55
2023/01/12 10:16:59;;;;;;;7.95;2.00;;;9.70;99.90;;;;;;5068872;28;20028;-54
2023/01/12 10:19:32;;;;;;;7.55;1.90;;;9.70;99.90;;;;;;5075514;28;20024;-56
2023/01/12 10:22:07;;;;;;;4.78;1.38;;;9.70;99.90;;;;;;5107527;28;20028;-58
2023/01/12 10:24:33;;;;;;;8.57;2.03;;;9.80;99.90;;;;;;5086694;28;20164;-57
2023/01/12 10:27:02;;;;;;;7.93;2.28;;;9.90;99.90;;;;;;5088911;28;20501;-55
2023/01/12 10:29:31;;;;;;;5.20;1.80;;;9.90;99.90;;;;;;5085280;28;20024;-55
2023/01/12 10:31:56;;;;;;;7.70;2.05;;;10.00;99.90;;;;;;5088347;28;20033;-53
2023/01/12 10:34:22;;;;;;;5.82;1.77;;;10.10;99.90;;;;;;5103246;28;20042;-54
2023/01/12 10:36:49;;;;;;;8.15;1.80;;;10.20;99.90;;;;;;5088806;28;20020;-51
2023/01/12 10:39:34;;;;;;;4.45;1.48;;;10.30;99.90;;;;;;5106897;28;20510;-54
2023/01/12 10:45:15;;;;;;;3.95;1.65;;;10.30;99.90;;;;;;5084718;28;20038;-54
2023/01/12 10:47:45;;;;;;;7.38;1.65;;;10.40;99.90;;;;;;5112058;28;20034;-56
2023/01/12 10:50:30;;;;;;;10.48;2.08;;;10.30;99.90;;;;;;5090404;28;20044;-53
2023/01/12 10:53:05;;;;;;;4.28;1.35;;;10.40;99.90;;;;;;5071771;28;20107;-56
2023/01/12 10:55:36;;;;;;;7.18;1.45;;;10.30;99.90;;;;;;5091969;28;20046;-54
2023/01/12 10:58:02;;;;;;;7.35;1.35;;;10.30;99.90;;;;;;5071761;28;20127;-56
2023/01/12 11:00:28;;;;;;;8.75;1.60;;;10.30;99.90;;;;;;5091310;28;20105;-54
2023/01/12 11:02:55;;;;;;;10.95;2.42;;;10.30;99.70;;;;;;5111609;28;20031;-56
2023/01/12 11:05:29;;;;;;;4.65;1.15;;;10.30;99.90;;;;;;5090663;28;20024;-57
2023/01/12 11:07:55;;;;;;;8.55;1.40;;;10.40;99.90;;;;;;5111893;28;20080;-54
2023/01/12 11:10:28;;;;;;;7.90;1.88;;;10.40;99.90;;;;;;5090481;28;20040;-53
2023/01/12 11:13:02;;;;;;;6.82;1.88;;;10.40;99.90;;;;;;5111685;28;20027;-58
2023/01/12 11:15:28;;;;;;;3.83;1.45;;;10.40;99.90;;;;;;5087284;28;20034;-58
2023/01/12 11:18:23;;;;;;;5.60;1.60;;;10.40;99.90;;;;;;5111499;28;20028;-57
2023/01/12 11:21:04;;;;;;;4.65;1.48;;;10.30;99.90;;;;;;5070761;28;20103;-56
2023/01/12 11:23:36;;;;;;;6.63;1.38;;;10.30;99.90;;;;;;5070750;28;20033;-56
2023/01/12 11:26:12;;;;;;;4.65;1.45;;;10.30;99.90;;;;;;5091848;28;20024;-56
2023/01/12 11:28:43;;;;;;;3.95;1.30;;;10.30;99.90;;;;;;5073693;28;20048;-58
2023/01/12 11:31:27;;;;;;;8.52;1.50;;;10.30;99.90;;;;;;5111685;28;20044;-51
2023/01/12 11:34:06;;;;;;;6.97;1.60;;;10.20;99.90;;;;;;5085338;28;20031;-58
2023/01/12 11:36:39;;;;;;;5.30;1.33;;;10.20;99.90;;;;;;5071017;28;20650;-56
2023/01/12 11:39:11;;;;;;;5.45;1.20;;;10.20;99.90;;;;;;5081467;28;20024;-56
2023/01/12 11:43:47;;;;;;;6.43;1.15;;;10.20;99.90;;;;;;5111677;28;20472;-55
2023/01/12 11:44:45;;;;;;;4.68;1.40;;;10.10;99.90;;;;;;5089014;28;20380;-56
2023/01/12 11:47:19;;;;;;;4.72;1.27;;;10.00;99.90;;;;;;5070858;28;20036;-56
2023/01/12 11:50:05;;;;;;;5.97;2.20;;;9.90;99.90;;;;;;5092429;28;20035;-57
2023/01/12 11:52:31;;;;;;;3.40;1.50;;;9.80;99.90;;;;;;5070121;28;20099;-56
2023/01/12 11:54:56;;;;;;;4.03;1.10;;;9.80;99.90;;;;;;5094728;28;20446;-56
2023/01/12 11:57:34;;;;;;;6.78;1.45;;;9.70;99.90;;;;;;5110468;28;20032;-56
2023/01/12 12:00:23;;;;;;;4.10;1.63;;;9.70;99.90;;;;;;5082654;28;20549;-55
2023/01/12 12:03:05;;;;;;;7.78;1.50;;;9.70;99.90;;;;;;5070525;28;20026;-55
2023/01/12 12:05:47;;;;;;;2.70;1.00;;;9.60;99.90;;;;;;5086748;28;20028;-55
2023/01/12 12:08:32;;;;;;;8.77;2.10;;;9.50;99.90;;;;;;5070517;28;20590;-59
2023/01/12 12:11:10;;;;;;;4.65;1.65;;;9.50;99.90;;;;;;5070547;28;20032;-56
2023/01/12 12:14:03;;;;;;;5.78;1.38;;;9.40;99.90;;;;;;5072458;28;20106;-56
2023/01/12 12:16:50;;;;;;;3.03;1.27;;;9.40;99.90;;;;;;5071377;27;20032;-54
2023/01/12 12:19:54;;;;;;;2.15;1.20;;;9.40;99.90;;;;;;5083517;28;20030;-54
2023/01/12 12:22:26;;;;;;;5.03;1.73;;;9.40;99.90;;;;;;5070235;28;20035;-56
2023/01/12 12:25:01;;;;;;;5.13;1.42;;;9.40;99.90;;;;;;5080972;28;20507;-56
2023/01/12 12:27:38;;;;;;;5.50;1.08;;;9.40;99.90;;;;;;5077163;28;20655;-59
2023/01/12 12:30:31;;;;;;;5.15;1.52;;;9.40;99.90;;;;;;5108818;28;20028;-57
2023/01/12 12:33:11;;;;;;;7.50;1.23;;;9.40;99.90;;;;;;5071773;28;20024;-56
2023/01/12 12:36:08;;;;;;;5.10;1.10;;;9.40;99.90;;;;;;5089571;28;20597;-57
2023/01/12 12:38:43;;;;;;;2.47;1.10;;;9.40;99.90;;;;;;5071385;28;20496;-56
2023/01/12 12:47:43;;;;;;;9.52;1.40;;;9.50;99.90;;;;;;5110459;28;20037;-57
2023/01/12 12:50:21;;;;;;;8.95;1.27;;;9.50;99.90;;;;;;5082857;28;20492;-58
2023/01/12 12:52:59;;;;;;;3.53;1.40;;;9.50;99.90;;;;;;5069564;28;20099;-58
2023/01/12 12:55:25;;;;;;;3.47;1.05;;;9.50;99.90;;;;;;5085186;28;20043;-58
2023/01/12 12:57:57;;;;;;;5.43;1.58;;;9.50;99.90;;;;;;5109507;28;20065;-57
2023/01/12 13:00:30;;;;;;;10.68;2.80;;;9.60;99.90;;;;;;5088384;28;20113;-58
2023/01/12 13:02:57;;;;;;;3.00;1.52;;;9.60;99.90;;;;;;5109341;28;20055;-58
2023/01/12 13:06:08;;;;;;;5.88;2.25;;;9.60;99.90;;;;;;5088229;28;20111;-57
2023/01/12 13:08:35;;;;;;;3.67;1.48;;;9.70;99.90;;;;;;5070686;28;20455;-57
2023/01/12 13:11:00;;;;;;;3.92;1.45;;;9.80;99.90;;;;;;5090367;28;20036;-56
2023/01/12 13:13:35;;;;;;;2.25;1.00;;;9.80;99.90;;;;;;5087621;28;20110;-57
2023/01/12 13:16:21;;;;;;;3.15;1.10;;;9.80;99.90;;;;;;5109536;28;20437;-59
2023/01/12 13:18:50;;;;;;;2.28;0.80;;;9.80;99.90;;;;;;5058881;28;20160;-58
2023/01/12 13:21:30;;;;;;;2.97;1.35;;;9.80;99.90;;;;;;5107384;28;20508;-58
2023/01/12 13:24:23;;;;;;;2.17;0.80;;;9.80;99.90;;;;;;5089625;28;20032;-59
2023/01/12 13:26:51;;;;;;;2.40;0.60;;;9.90;99.90;;;;;;5075129;28;20031;-58
2023/01/12 13:29:22;;;;;;;3.20;0.88;;;10.00;99.90;;;;;;5109547;28;20032;-58
2023/01/12 13:31:55;;;;;;;1.42;0.40;;;10.00;99.90;;;;;;5091722;28;20027;-59
2023/01/12 13:34:51;;;;;;;0.93;0.50;;;10.00;99.90;;;;;;5090280;28;20516;-57
2023/01/12 13:37:41;;;;;;;1.15;0.55;;;9.90;99.90;;;;;;5073022;28;20031;-57
2023/01/12 13:40:18;;;;;;;1.70;0.50;;;10.00;99.90;;;;;;5069272;28;20086;-58
2023/01/12 13:45:29;;;;;;;0.40;0.40;;;10.00;99.90;;;;;;5078870;28;20112;-58
2023/01/12 13:47:55;;;;;;;2.70;0.60;;;10.00;99.90;;;;;;5087458;28;20083;-56
2023/01/12 13:50:24;;;;;;;2.50;0.60;;;10.00;99.90;;;;;;5085913;28;20038;-58
2023/01/12 13:53:01;;;;;;;0.70;0.50;;;10.00;99.90;;;;;;5108204;28;20036;-57
2023/01/12 13:55:29;;;;;;;1.33;0.60;;;10.00;99.90;;;;;;5081347;28;20093;-58